Terminal Aerodrome Forecast
Issued by NWS Northern Indiana

Home | Current Version | Previous Version | Graphics & Text | Print | Product List | Glossary On
Versions: 1 2 3 4 5 6 7 8 9 10 11 12 13 14 15 16 17
000
FTUS43 KIWX 200532 AAA
TAFFWA
TAF AMD
KFWA 200532Z 2006/2106 08010KT 4SM RA BR SCT006 OVC030
     FM200900 10006KT 3SM RA BR OVC006
     FM201300 15004KT 3SM -RA BR OVC004
     FM201800 22009KT 5SM BR OVC008
     FM210500 15006KT 2SM BR OVC004=

USA.gov is the U.S. government's official web portal to all federal, state and local government web resources and services.